logo
Search for airport 
image banner adimage banner adimage banner ad
image banner ad

UACK - Kokshetau

Located in Kokshetau, Kazakhstan

ICAO - UACK, IATA - KOV

Data provided by Airmate  

General information

Coordinates: N53°19'49" E69°35'44"
Elevation is 888 feet MSL.
Magnetic variation is 11° East
View others Airports in Akmola

Operational data

Special qualification required
Current time UTC:
Current local time:
Weather
TAF: TAF UACK 031101Z 0312/0321 25007G12MPS 9999 SCT011 BKN030 TEMPO 0315/0321 3100 BR
View NOTAMs / SUP AIP / TFR affecting this airport [VIEW]
Communications frequencies: [VIEW]

Runways:

RWY identifierQFULength (ft)Width (ft)SurfaceLDA (ft)
0232°9350148CONC+ASPH9350
20212°9350148CONC+ASPH9350

Airport contact information

Address: Kokshetau Kazakhstan

Satellite view of UACK